Provo, UT

10:11 AM MDT on August 30, 2014 (GMT -0600)
Snake Hill Farm | Change Station
CLOSE
Current Station
Personal Weather Station
Location: Orem, UT
Elevation: 4741 ft
Nearby Weather Stations

Elev 4741 ft 40.26 °N, 111.69 °W | Updated 1 second ago

Mostly Cloudy
Mostly Cloudy
69.1 °F
Feels Like 69.1 °F
N
0.9
Wind Variable Wind from SSE
Gusts 1.0 mph

Today
High -- | Low -- °F
--% Chance of Precip.
Yesterday
High -- | Low -- °F
Precip. -- in
6:52 AM 8:01 PM
Waxing Crescent, 23% visible
Pressure 30.00 in
Visibility 15.0 miles
Clouds Scattered Clouds 12000 ft
Mostly Cloudy 15000 ft
Dew Point 50 °F
Humidity 51%
Rainfall 0.00 in
Snow Depth 0 in
UV 2 out of 12
Pollen 8.60 out of 12
Air Quality Not available.
Flu Activity Not available.
METAR KPVU 301550Z 14005KT 15SM SCT120 BKN150 21/09 A3000

More Conditions Fewer Conditions

Pressure 30.00 in
Visibility 15.0 miles
Clouds Scattered Clouds 12000 ft
Mostly Cloudy 15000 ft
Dew Point 50 °F
Humidity 51%
Rainfall 0.00 in
Snow Depth 0 in
UV 2 out of 12
Pollen 8.60 out of 12
Air Quality Not available.
Flu Activity Not available.
METAR KPVU 301550Z 14005KT 15SM SCT120 BKN150 21/09 A3000

More Conditions Fewer Conditions

10-Day Weather Forecast

Almanac

Astronomy

Aug. 30, 2014 Rise Set
Actual Time 6:52 AM MDT 8:01 PM MDT
Civil Twilight 6:24 AM MDT 8:29 PM MDT
Nautical Twilight 5:51 AM MDT 9:02 PM MDT
Astronomical Twilight 5:15 AM MDT 9:37 PM MDT
Moon 11:44 AM MDT 10:37 PM MDT
Length of Visible Light 14h 04m
Length of Day
13h 09m
Tomorrow will be 2m 33s shorter.
Waxing Crescent, 23% of the Moon is Illuminated
Today
Waxing Crescent
Sep 2
First Quarter
Sep 8
Full
Sep 15
Last Quarter
Sep 24
New

Today's Extremes

State Highs State Lows

Community

WunderPhotos

Upload Photos

1,748,556 photos uploaded!

WunderBlogs® & News

Nearby

Snow Depth

Station Depth Elevation
Cascade Mountain 0 in 7768 ft
Daniels-Strawberry 0 in 8000 ft
Strawberry Divide 0 in 8400 ft
Mill-d North 0 in 8960 ft
Clear Creek #2 0 in 8300 ft

Earthquake Activity

City Distance Mag. Time & Date
No recent earthquake activity has been reported nearby.
Minimum magnitude displayed is 2.5.

Coastal Water Temperatures

Place Temperature
No Stations Reporting

Nearby Weather Stations